This is the latest recevied weather packets stored in our database for station/object SQ5LTL-2. If no packets are shown the sender has not sent any weather packets the latest 10 day(s).
| Time | Temp. | Humidity | Pressure | Rain* | Wind** | Luminosity | Snow |
|---|---|---|---|---|---|---|---|
| 1777772736 | 8.89° C | 80% | 1020.5 hPa | 0 mm | - | 0 W/m² | - |
| 1777772133 | 8.89° C | 79% | 1020.6 hPa | 0 mm | - | 0 W/m² | - |
| 1777770625 | 8.89° C | 79% | 1020.6 hPa | 0 mm | - | 0 W/m² | - |
| 1777769720 | 9.44° C | 78% | 1020.5 hPa | 0 mm | - | 0 W/m² | - |
| 1777767329 | 10° C | 76% | 1020.4 hPa | 0 mm | - | 0 W/m² | - |
| 1777767026 | 10° C | 76% | 1020.6 hPa | 0 mm | - | 0 W/m² | - |
| 1777766725 | 9.44° C | 78% | 1020.5 hPa | 0 mm | - | 0 W/m² | - |
| 1777766424 | 9.44° C | 78% | 1020.5 hPa | 0 mm | - | 0 W/m² | - |
| 1777765519 | 10° C | 76% | 1020.5 hPa | 0 mm | - | 0 W/m² | - |
| 1777764916 | 10° C | 75% | 1020.6 hPa | 0 mm | - | 0 W/m² | - |
| 1777761922 | 10.56° C | 72% | 1020.7 hPa | 0 mm | - | 0 W/m² | - |
| 1777761633 | 11.11° C | 71% | 1020.8 hPa | 0 mm | - | 0 W/m² | - |
| 1777761319 | 11.11° C | 71% | 1020.8 hPa | 0 mm | - | 0 W/m² | - |
| 1777761017 | 11.67° C | 70% | 1020.7 hPa | 0 mm | - | 0 W/m² | - |
| 1777760736 | 11.67° C | 70% | 1020.8 hPa | 0 mm | - | 0 W/m² | - |
| 1777760434 | 11.67° C | 69% | 1020.7 hPa | 0 mm | - | 0 W/m² | - |
| 1777760132 | 11.67° C | 69% | 1020.7 hPa | 0 mm | - | 0 W/m² | - |
| 1777759831 | 11.67° C | 69% | 1020.8 hPa | 0 mm | - | 0 W/m² | - |
| 1777759531 | 11.67° C | 70% | 1020.8 hPa | 0 mm | - | 0 W/m² | - |
| 1777758926 | 12.22° C | 68% | 1020.9 hPa | 0 mm | - | 0 W/m² | - |
| 1777758625 | 11.67° C | 68% | 1020.8 hPa | 0 mm | - | 0 W/m² | - |
| 1777757721 | 12.22° C | 67% | 1020.8 hPa | 0 mm | - | 0 W/m² | - |
| 1777757419 | 12.78° C | 65% | 1021 hPa | 0 mm | - | 0 W/m² | - |
| 1777757117 | 12.78° C | 65% | 1020.9 hPa | 0 mm | - | 0 W/m² | - |
| 1777756816 | 12.22° C | 67% | 1021 hPa | 0 mm | - | 0 W/m² | - |
* Rain latest hour (hover to see other rain measurements)
** Current wind speed in m/s (hover to see current wind gust speed)